Time;durP1;ratioP1;P1;durP2;ratioP2;P2;SDS_P1;SDS_P2;PMS_P1;PMS_P2;Temp;Humidity;BMP_temperature;BMP_pressure;BME280_temperature;BME280_humidity;BME280_pressure;Samples;Min_cycle;Max_cycle;Signal;HPM_P1;HPM_P2
2021/01/21 00:00:43;;;;;;;6.12;5.12;;;;;;;5.65;60.00;95595.69;1699938;83;21114;-82
2021/01/21 00:03:10;;;;;;;7.85;6.55;;;;;;;5.56;60.05;95616.85;1709090;83;21166;-81
2021/01/21 00:05:36;;;;;;;5.05;4.42;;;;;;;5.49;60.52;95574.68;1761430;81;21531;-81
2021/01/21 00:08:02;;;;;;;5.60;4.83;;;;;;;5.46;60.28;95581.47;1758359;81;21115;-81
2021/01/21 00:10:28;;;;;;;6.87;5.58;;;;;;;5.47;60.72;95582.27;1755126;81;21245;-81
2021/01/21 00:12:54;;;;;;;8.58;5.30;;;;;;;5.41;60.77;95585.84;1760998;80;21162;-81
2021/01/21 00:15:20;;;;;;;6.10;5.50;;;;;;;5.39;61.01;95587.79;1759700;81;21436;-80
2021/01/21 00:17:46;;;;;;;6.65;5.85;;;;;;;5.35;61.46;95590.85;1759353;80;21137;-81
2021/01/21 00:20:14;;;;;;;5.40;4.42;;;;;;;5.33;61.10;95574.28;1757164;80;21347;-81
2021/01/21 00:22:40;;;;;;;6.62;5.00;;;;;;;5.33;61.38;95578.14;1756710;81;21134;-81
2021/01/21 00:25:08;;;;;;;6.42;4.80;;;;;;;5.29;61.92;95567.06;1759274;80;21102;-82
2021/01/21 00:27:34;;;;;;;6.37;4.60;;;;;;;5.28;61.60;95571.91;1753693;81;21689;-81
2021/01/21 00:30:01;;;;;;;5.95;5.15;;;;;;;5.23;62.12;95572.90;1752310;81;21143;-81
2021/01/21 00:32:27;;;;;;;5.35;4.80;;;;;;;5.20;62.02;95574.02;1758068;81;21368;-81
2021/01/21 00:34:53;;;;;;;8.20;6.45;;;;;;;5.16;62.55;95567.60;1763598;80;21105;-81
2021/01/21 00:37:19;;;;;;;6.08;5.10;;;;;;;5.13;62.41;95564.08;1775725;80;21114;-81
2021/01/21 00:39:45;;;;;;;6.37;4.45;;;;;;;5.15;62.31;95570.34;1765785;80;21106;-81
2021/01/21 00:42:11;;;;;;;4.60;4.17;;;;;;;5.13;62.46;95575.66;1769857;80;21102;-81
2021/01/21 00:44:37;;;;;;;4.78;4.28;;;;;;;5.11;62.58;95572.45;1765323;80;21082;-81
2021/01/21 00:47:04;;;;;;;5.65;4.05;;;;;;;5.11;62.46;95574.55;1765572;80;21109;-81
2021/01/21 00:49:30;;;;;;;5.90;4.42;;;;;;;5.12;62.13;95570.20;1765891;80;21367;-81
2021/01/21 00:51:56;;;;;;;6.87;5.03;;;;;;;5.19;62.11;95578.84;1760777;80;21109;-81
2021/01/21 00:54:22;;;;;;;4.72;3.85;;;;;;;5.23;62.18;95570.33;1763198;80;21122;-81
2021/01/21 00:56:48;;;;;;;5.25;4.17;;;;;;;5.24;62.30;95553.41;1766181;80;21384;-81
2021/01/21 00:59:14;;;;;;;5.25;4.75;;;;;;;5.24;62.14;95563.72;1764896;80;21332;-81
2021/01/21 01:01:40;;;;;;;5.12;4.40;;;;;;;5.27;62.45;95554.84;1758254;80;21134;-81
2021/01/21 01:04:06;;;;;;;5.80;4.60;;;;;;;5.24;62.64;95561.62;1762884;80;21098;-79
2021/01/21 01:06:32;;;;;;;4.03;3.42;;;;;;;5.16;62.91;95549.57;1767817;80;21252;-80
2021/01/21 01:08:58;;;;;;;4.20;3.72;;;;;;;5.08;62.85;95537.55;1735044;80;21105;-79
2021/01/21 01:11:24;;;;;;;5.62;4.70;;;;;;;5.07;62.93;95555.26;1765219;80;21112;-81
2021/01/21 01:13:50;;;;;;;6.08;4.92;;;;;;;5.09;63.16;95538.36;1734181;80;21161;-81
2021/01/21 01:16:16;;;;;;;6.90;6.05;;;;;;;5.07;63.35;95540.30;1773253;80;21350;-80
2021/01/21 01:18:42;;;;;;;6.55;3.90;;;;;;;5.03;63.46;95543.67;1761207;80;21117;-80
2021/01/21 01:21:08;;;;;;;5.40;4.67;;;;;;;4.98;63.75;95543.86;1767954;80;21682;-79
2021/01/21 01:23:35;;;;;;;5.28;4.28;;;;;;;4.96;63.81;95543.23;1763475;80;21124;-79
2021/01/21 01:26:01;;;;;;;5.42;4.70;;;;;;;4.92;63.84;95553.55;1766244;80;21129;-79
2021/01/21 01:28:27;;;;;;;5.47;4.37;;;;;;;4.92;63.86;95571.57;1766431;80;21252;-79
2021/01/21 01:30:53;;;;;;;5.53;5.00;;;;;;;4.96;63.85;95575.41;1760369;80;21146;-81
2021/01/21 01:33:19;;;;;;;4.50;3.90;;;;;;;4.97;63.75;95588.11;1763732;80;21127;-81
2021/01/21 01:35:45;;;;;;;5.42;3.90;;;;;;;4.95;63.73;95584.11;1755886;81;21082;-81
2021/01/21 01:38:13;;;;;;;5.05;3.85;;;;;;;4.93;63.72;95592.48;1754255;81;21126;-81
2021/01/21 01:40:40;;;;;;;4.30;3.90;;;;;;;4.92;64.06;95577.52;1760096;81;21535;-81
2021/01/21 01:43:06;;;;;;;5.60;4.33;;;;;;;4.82;64.00;95594.43;1759720;80;21130;-81
2021/01/21 01:45:32;;;;;;;5.25;4.30;;;;;;;4.80;64.06;95606.67;1747908;81;21089;-81
2021/01/21 01:47:59;;;;;;;4.62;3.70;;;;;;;4.81;64.19;95597.97;1756157;81;21123;-81
2021/01/21 01:50:25;;;;;;;3.92;2.87;;;;;;;4.82;64.28;95597.00;1755292;80;21281;-81
2021/01/21 01:52:53;;;;;;;5.28;3.42;;;;;;;4.82;64.19;95594.43;1757633;81;21111;-81
2021/01/21 01:55:19;;;;;;;4.37;3.98;;;;;;;4.88;64.33;95592.98;1754154;81;21083;-80
2021/01/21 01:57:53;;;;;;;5.65;4.30;;;;;;;4.85;64.30;95604.08;1761716;81;21115;-80
2021/01/21 02:00:20;;;;;;;4.70;3.87;;;;;;;4.81;64.38;95587.67;1743166;81;21511;-81
2021/01/21 02:02:50;;;;;;;5.28;4.15;;;;;;;4.74;64.51;95579.51;1755299;81;21121;-80
2021/01/21 02:05:17;;;;;;;5.87;4.65;;;;;;;4.69;64.58;95580.47;1753874;81;21117;-81
2021/01/21 02:07:44;;;;;;;7.15;5.05;;;;;;;4.66;64.72;95579.03;1760179;80;21118;-81
2021/01/21 02:10:13;;;;;;;6.17;4.50;;;;;;;4.65;64.80;95571.00;1747716;81;21114;-81
2021/01/21 02:13:04;;;;;;;6.45;4.83;;;;;;;4.66;64.81;95576.94;1760570;81;21408;-81
2021/01/21 02:16:00;;;;;;;4.92;4.30;;;;;;;4.66;65.08;95573.08;1741473;81;21142;-80
2021/01/21 02:19:05;;;;;;;5.28;4.72;;;;;;;4.65;65.24;95578.71;1755617;81;21131;-81
2021/01/21 02:21:56;;;;;;;5.60;4.60;;;;;;;4.63;65.39;95570.84;1729258;82;21146;-81
2021/01/21 02:24:59;;;;;;;5.20;4.70;;;;;;;4.62;65.45;95579.05;1757250;81;21355;-81
2021/01/21 02:27:26;;;;;;;5.75;3.62;;;;;;;4.64;65.58;95577.59;1754732;81;21110;-81
2021/01/21 02:29:52;;;;;;;5.55;4.67;;;;;;;4.61;65.61;95601.89;1723486;81;21404;-81
2021/01/21 02:32:26;;;;;;;3.92;3.47;;;;;;;4.59;65.74;95575.52;1756869;81;21170;-80
2021/01/21 02:35:08;;;;;;;5.15;4.20;;;;;;;4.59;65.91;95581.95;1722848;80;21134;-81
2021/01/21 02:37:36;;;;;;;;;;;;;;;4.56;66.02;95585.34;1733508;80;21144;-80
2021/01/21 02:40:05;;;;;;;6.53;4.78;;;;;;;4.52;65.93;95588.22;1764427;80;20167;-81
2021/01/21 02:42:44;;;;;;;6.47;5.42;;;;;;;4.52;66.00;95589.50;1754658;80;21118;-81
2021/01/21 02:45:12;;;;;;;5.87;4.95;;;;;;;4.52;66.06;95587.41;1685749;84;21134;-81
2021/01/21 02:47:39;;;;;;;5.15;4.20;;;;;;;4.54;66.07;95580.34;1712734;82;21122;-80
2021/01/21 02:50:07;;;;;;;5.60;4.45;;;;;;;4.55;66.13;95589.66;1705547;82;21142;-81
2021/01/21 02:52:38;;;;;;;7.50;5.60;;;;;;;4.52;66.16;95572.78;1751989;81;21127;-81
2021/01/21 02:55:23;;;;;;;24.67;14.73;;;;;;;4.50;66.20;95571.34;1723557;81;21268;-81
2021/01/21 02:58:09;;;;;;;5.75;5.15;;;;;;;4.46;66.34;95571.36;1713394;81;21106;-81
2021/01/21 03:00:36;;;;;;;6.55;4.33;;;;;;;4.41;66.44;95567.20;1749033;81;21256;-81
2021/01/21 03:03:03;;;;;;;5.17;4.22;;;;;;;4.39;66.59;95567.36;1754485;81;21098;-81
2021/01/21 03:05:29;;;;;;;5.45;4.17;;;;;;;4.44;66.92;95579.73;1745641;81;21120;-81
2021/01/21 03:07:55;;;;;;;4.92;4.12;;;;;;;4.46;66.90;95561.07;1761374;81;21126;-81
2021/01/21 03:10:22;;;;;;;6.05;4.83;;;;;;;4.45;67.22;95577.47;1757952;81;21117;-81
2021/01/21 03:12:58;;;;;;;5.12;4.00;;;;;;;4.46;66.98;95579.08;1760815;81;21150;-80
2021/01/21 03:15:26;;;;;;;5.90;4.62;;;;;;;4.50;66.72;95591.92;1749755;81;21134;-80
2021/01/21 03:17:53;;;;;;;5.17;4.40;;;;;;;4.52;66.71;95593.36;1748773;81;21162;-81
2021/01/21 03:20:19;;;;;;;4.47;4.00;;;;;;;4.55;66.74;95592.72;1758107;80;21298;-80
2021/01/21 03:22:45;;;;;;;5.67;4.55;;;;;;;4.56;66.79;95586.14;1695072;84;21455;-81
2021/01/21 03:25:11;;;;;;;5.20;4.08;;;;;;;4.59;66.70;95588.87;1715099;83;21145;-80
2021/01/21 03:27:38;;;;;;;5.20;4.12;;;;;;;4.59;66.74;95587.10;1716994;83;21468;-80
2021/01/21 03:30:07;;;;;;;5.80;4.30;;;;;;;4.60;66.82;95579.70;1702090;83;21146;-80
2021/01/21 03:32:34;;;;;;;4.37;3.47;;;;;;;4.60;66.72;95593.05;1711301;83;21141;-81
2021/01/21 03:35:00;;;;;;;5.05;3.85;;;;;;;4.61;66.76;95585.16;1694349;83;21300;-80
2021/01/21 03:37:26;;;;;;;4.33;3.65;;;;;;;4.62;66.70;95581.63;1699715;83;21125;-81
2021/01/21 03:39:52;;;;;;;4.08;3.45;;;;;;;4.61;66.76;95586.94;1680991;83;21257;-81
2021/01/21 03:42:18;;;;;;;6.40;5.05;;;;;;;4.62;66.94;95556.38;1706858;83;21079;-80
2021/01/21 03:44:45;;;;;;;4.70;4.20;;;;;;;4.61;66.95;95564.58;1697354;83;21264;-81
2021/01/21 03:47:11;;;;;;;4.25;3.55;;;;;;;4.59;66.98;95567.80;1695847;83;21173;-80
2021/01/21 03:49:37;;;;;;;4.72;3.35;;;;;;;4.57;67.15;95533.72;1695858;83;21241;-80
2021/01/21 03:52:03;;;;;;;6.03;4.40;;;;;;;4.55;67.14;95546.41;1706398;83;21158;-81
2021/01/21 03:54:29;;;;;;;3.55;3.05;;;;;;;4.53;67.19;95562.81;1688842;83;21135;-80
2021/01/21 03:56:56;;;;;;;4.87;4.15;;;;;;;4.59;67.33;95556.71;1701477;83;21138;-80
2021/01/21 03:59:22;;;;;;;5.42;4.22;;;;;;;4.62;67.16;95547.37;1701319;83;21129;-79
2021/01/21 04:01:48;;;;;;;4.92;3.80;;;;;;;4.62;67.16;95539.16;1750659;81;21133;-78
2021/01/21 04:04:14;;;;;;;4.70;3.72;;;;;;;4.63;67.10;95557.49;1746844;81;21133;-78
2021/01/21 04:06:40;;;;;;;4.35;3.37;;;;;;;4.61;67.20;95540.14;1747474;81;21110;-79
2021/01/21 04:09:06;;;;;;;5.60;4.17;;;;;;;4.61;67.41;95548.34;1759355;81;21119;-78
2021/01/21 04:11:33;;;;;;;4.85;3.92;;;;;;;4.66;67.28;95552.50;1753060;81;21628;-78
2021/01/21 04:13:59;;;;;;;5.15;3.75;;;;;;;4.66;67.22;95563.59;1724472;81;21395;-78
2021/01/21 04:16:25;;;;;;;4.22;3.75;;;;;;;4.65;67.19;95560.70;1741073;81;21115;-78
2021/01/21 04:18:51;;;;;;;5.08;3.62;;;;;;;4.66;67.15;95554.59;1753327;80;21291;-78
2021/01/21 04:21:17;;;;;;;3.30;3.00;;;;;;;4.64;67.18;95546.23;1761796;81;21103;-79
2021/01/21 04:23:43;;;;;;;4.58;3.70;;;;;;;4.64;67.41;95550.58;1757740;80;21118;-79
2021/01/21 04:26:10;;;;;;;3.77;3.30;;;;;;;4.62;67.45;95533.22;1755491;81;21145;-79
2021/01/21 04:28:36;;;;;;;5.10;3.65;;;;;;;4.61;67.55;95543.99;1758413;81;21118;-79
2021/01/21 04:31:03;;;;;;;3.47;3.10;;;;;;;4.59;67.54;95534.36;1750431;81;21324;-78
2021/01/21 04:33:29;;;;;;;5.12;3.58;;;;;;;4.57;67.68;95538.06;1751999;81;21125;-78
2021/01/21 04:35:55;;;;;;;5.47;4.05;;;;;;;4.55;67.95;95535.63;1754730;80;21229;-78
2021/01/21 04:38:21;;;;;;;3.55;3.20;;;;;;;4.56;67.84;95544.98;1757339;81;21117;-78
2021/01/21 04:40:47;;;;;;;4.92;3.85;;;;;;;4.58;67.93;95540.47;1749319;81;21087;-79
2021/01/21 04:43:14;;;;;;;5.28;4.08;;;;;;;4.61;67.76;95530.33;1758368;80;21137;-78
2021/01/21 04:45:40;;;;;;;4.15;3.12;;;;;;;4.59;67.78;95529.70;1750587;81;21089;-79
2021/01/21 04:48:07;;;;;;;5.28;3.77;;;;;;;4.58;67.99;95525.52;1760088;81;21101;-78
2021/01/21 04:50:34;;;;;;;5.08;3.27;;;;;;;4.60;68.05;95537.73;1757206;80;21138;-78
2021/01/21 04:53:00;;;;;;;3.72;3.37;;;;;;;4.61;68.03;95542.70;1758387;81;21111;-78
2021/01/21 04:55:30;;;;;;;4.50;3.65;;;;;;;4.58;68.24;95530.17;1749123;81;21149;-78
2021/01/21 04:58:19;;;;;;;4.47;3.47;;;;;;;4.60;68.25;95539.81;1685953;84;21122;-78
2021/01/21 05:00:45;;;;;;;5.83;3.42;;;;;;;4.61;68.22;95521.33;1754945;80;21083;-79
2021/01/21 05:03:12;;;;;;;5.45;3.87;;;;;;;4.64;68.20;95507.64;1750562;81;21252;-78
2021/01/21 05:05:39;;;;;;;3.98;3.60;;;;;;;4.69;68.09;95524.66;1757094;81;21066;-78
2021/01/21 05:08:06;;;;;;;5.25;3.55;;;;;;;4.70;68.07;95513.88;1729129;81;21110;-78
2021/01/21 05:10:33;;;;;;;4.62;3.72;;;;;;;4.71;68.11;95516.77;1749157;80;21079;-78
2021/01/21 05:12:59;;;;;;;6.40;3.75;;;;;;;4.69;68.24;95518.22;1688589;84;21321;-78
2021/01/21 05:15:26;;;;;;;4.28;3.83;;;;;;;4.68;68.25;95523.54;1698678;83;21928;-79
2021/01/21 05:17:53;;;;;;;6.40;3.87;;;;;;;4.68;68.16;95524.83;1709802;83;21272;-79
2021/01/21 05:20:24;;;;;;;3.55;3.00;;;;;;;4.71;68.20;95524.48;1687385;84;21123;-79
2021/01/21 05:22:58;;;;;;;5.50;3.50;;;;;;;4.68;68.19;95525.63;1733473;81;21126;-78
2021/01/21 05:25:25;;;;;;;5.58;3.62;;;;;;;4.65;68.16;95542.69;1754599;81;21119;-79
2021/01/21 05:27:56;;;;;;;3.65;3.35;;;;;;;4.65;68.33;95534.97;1725827;81;21228;-79
2021/01/21 05:30:23;;;;;;;5.15;4.22;;;;;;;4.65;68.34;95549.13;1687197;84;21130;-78
2021/01/21 05:32:50;;;;;;;5.33;3.65;;;;;;;4.67;68.43;95548.47;1715432;81;21344;-78
2021/01/21 05:35:16;;;;;;;4.62;3.12;;;;;;;4.67;68.42;95533.52;1735987;80;21126;-79
2021/01/21 05:37:48;;;;;;;5.30;3.65;;;;;;;4.67;68.34;95534.31;1779297;80;21123;-78
2021/01/21 05:40:14;;;;;;;5.05;3.77;;;;;;;4.68;68.39;95537.20;1760672;80;21125;-79
2021/01/21 05:42:40;;;;;;;5.25;2.80;;;;;;;4.68;68.33;95544.92;1736836;80;21140;-79
2021/01/21 05:45:08;;;;;;;4.08;3.33;;;;;;;4.66;68.38;95540.92;1754968;80;21124;-78
2021/01/21 05:47:34;;;;;;;3.42;2.40;;;;;;;4.62;68.39;95542.22;1764338;80;21117;-79
2021/01/21 05:50:01;;;;;;;5.60;4.30;;;;;;;4.57;68.53;95532.92;1766299;80;21996;-79
2021/01/21 05:52:27;;;;;;;4.35;3.72;;;;;;;4.54;68.76;95534.02;1772263;80;21260;-78
2021/01/21 05:54:54;;;;;;;4.22;3.83;;;;;;;4.56;68.62;95529.55;1764412;80;21259;-78
2021/01/21 05:57:21;;;;;;;4.22;3.50;;;;;;;4.58;68.61;95540.95;1713755;80;21082;-79
2021/01/21 05:59:48;;;;;;;4.80;3.67;;;;;;;4.58;68.53;95546.09;1737538;80;21128;-79
2021/01/21 06:02:15;;;;;;;4.85;3.70;;;;;;;4.62;68.62;95531.93;1769573;80;21110;-78
2021/01/21 06:04:41;;;;;;;4.08;3.15;;;;;;;4.63;68.52;95521.95;1767868;80;21126;-79
2021/01/21 06:07:10;;;;;;;3.92;3.17;;;;;;;4.63;68.57;95527.91;1767884;80;21074;-79
2021/01/21 06:09:36;;;;;;;4.15;3.47;;;;;;;4.67;68.55;95522.73;1756025;80;21133;-79
2021/01/21 06:12:04;;;;;;;5.37;3.72;;;;;;;4.65;68.58;95522.59;1763913;80;21267;-79
2021/01/21 06:14:30;;;;;;;3.87;3.25;;;;;;;4.64;68.64;95523.08;1757177;80;21138;-78
2021/01/21 06:16:59;;;;;;;4.80;2.80;;;;;;;4.65;68.56;95527.73;1734853;80;21344;-79
2021/01/21 06:19:25;;;;;;;6.08;3.22;;;;;;;4.65;68.61;95523.88;1733745;80;21113;-78
2021/01/21 06:22:06;;;;;;;4.33;3.90;;;;;;;4.68;68.62;95525.63;1743471;80;21182;-79
2021/01/21 06:24:38;;;;;;;4.20;3.33;;;;;;;4.68;68.64;95521.77;1743523;80;21134;-79
2021/01/21 06:27:05;;;;;;;4.42;3.67;;;;;;;4.67;68.61;95529.17;1756147;81;21239;-79
2021/01/21 06:29:31;;;;;;;4.92;3.65;;;;;;;4.65;68.67;95514.39;1754161;80;21110;-78
2021/01/21 06:32:01;;;;;;;4.03;3.45;;;;;;;4.64;68.61;95536.42;1754810;80;21110;-80
2021/01/21 06:34:33;;;;;;;4.95;3.62;;;;;;;4.65;68.70;95511.81;1737671;80;21082;-78
2021/01/21 06:37:02;;;;;;;3.52;3.00;;;;;;;4.66;68.68;95515.98;1725750;80;21272;-78
2021/01/21 06:39:54;;;;;;;4.33;2.83;;;;;;;4.68;68.64;95517.11;1744580;80;21130;-79
2021/01/21 06:42:27;;;;;;;4.50;3.70;;;;;;;4.67;68.69;95511.64;1738258;82;21515;-78
2021/01/21 06:44:55;;;;;;;3.67;2.70;;;;;;;4.69;68.58;95540.09;1737460;80;21146;-79
2021/01/21 06:47:21;;;;;;;5.60;3.52;;;;;;;4.69;68.58;95526.43;1727074;80;21117;-79
2021/01/21 06:49:51;;;;;;;5.55;3.72;;;;;;;4.71;68.66;95523.20;1728716;82;21256;-78
2021/01/21 06:52:17;;;;;;;3.37;2.72;;;;;;;4.75;68.40;95532.22;1741478;80;21552;-78
2021/01/21 06:54:43;;;;;;;4.05;3.20;;;;;;;4.81;68.28;95530.25;1758809;80;21122;-78
2021/01/21 06:57:38;;;;;;;3.92;3.52;;;;;;;4.83;68.28;95548.91;1742276;81;21110;-79
2021/01/21 07:00:10;;;;;;;3.80;2.83;;;;;;;4.82;68.33;95550.67;1716171;82;21125;-78
2021/01/21 07:02:47;;;;;;;4.42;3.50;;;;;;;4.82;68.29;95551.96;1730931;80;21984;-78
2021/01/21 07:05:18;;;;;;;4.25;2.75;;;;;;;4.87;68.21;95563.04;1731323;80;21166;-78
2021/01/21 07:08:00;;;;;;;5.08;3.95;;;;;;;4.90;68.05;95560.64;1735555;80;21106;-78
2021/01/21 07:10:31;;;;;;;4.00;3.40;;;;;;;4.93;67.96;95554.67;1728554;82;21086;-79
2021/01/21 07:13:02;;;;;;;4.92;3.98;;;;;;;4.96;67.90;95561.25;1728083;82;21145;-79
2021/01/21 07:15:34;;;;;;;5.25;3.72;;;;;;;4.99;67.81;95559.63;1747201;80;21260;-79
2021/01/21 07:18:04;;;;;;;;;;;;;;;4.99;67.82;95559.63;1729613;80;21157;-80
2021/01/21 07:20:35;;;;;;;4.65;3.52;;;;;;;5.00;67.79;95555.59;1729669;80;20398;-79
2021/01/21 07:23:07;;;;;;;4.58;3.77;;;;;;;4.99;67.75;95561.72;1750341;80;21137;-79
2021/01/21 07:25:34;;;;;;;5.00;3.00;;;;;;;4.99;67.75;95560.42;1735534;82;21272;-79
2021/01/21 07:28:09;;;;;;;6.75;3.90;;;;;;;4.99;67.84;95554.48;1738110;80;22065;-79
2021/01/21 07:30:39;;;;;;;4.05;3.17;;;;;;;5.01;67.75;95555.91;1729356;80;21142;-79
2021/01/21 07:33:26;;;;;;;3.80;3.08;;;;;;;5.06;67.65;95563.95;1742000;80;21134;-79
2021/01/21 07:35:52;;;;;;;6.37;5.15;;;;;;;5.12;67.54;95552.98;1707633;83;21336;-80
2021/01/21 07:38:50;;;;;;;6.35;4.40;;;;;;;5.15;67.58;95553.12;1738889;80;21117;-79
2021/01/21 07:41:44;;;;;;;8.88;5.03;;;;;;;5.13;67.54;95559.73;1750947;80;21119;-79
2021/01/21 07:44:11;;;;;;;9.58;4.80;;;;;;;5.11;67.41;95559.09;1748040;80;21376;-79
2021/01/21 07:46:37;;;;;;;13.30;7.65;;;;;;;5.10;67.58;95576.00;1746551;80;21253;-80
2021/01/21 07:49:26;;;;;;;12.47;7.80;;;;;;;5.08;67.63;95558.64;1750816;80;21268;-80
2021/01/21 07:52:05;;;;;;;7.75;4.97;;;;;;;5.10;67.68;95570.86;1754695;80;21099;-80
2021/01/21 07:54:45;;;;;;;11.65;7.75;;;;;;;5.13;67.56;95571.31;1750653;80;21095;-81
2021/01/21 07:57:23;;;;;;;24.47;13.90;;;;;;;5.19;67.55;95570.32;1717962;80;21106;-81
2021/01/21 07:59:59;;;;;;;23.87;13.83;;;;;;;5.21;67.55;95557.62;1748180;80;21138;-81
2021/01/21 08:02:47;;;;;;;7.05;4.37;;;;;;;5.21;67.58;95561.48;1760788;80;21237;-80
2021/01/21 08:05:14;;;;;;;5.97;4.03;;;;;;;5.22;67.54;95561.00;1682484;84;21145;-80
2021/01/21 08:08:00;;;;;;;8.48;5.20;;;;;;;5.21;67.57;95566.63;1760014;80;21118;-81
2021/01/21 08:10:25;;;;;;;9.03;5.28;;;;;;;5.22;67.51;95561.00;1747461;80;21158;-80
2021/01/21 08:12:58;;;;;;;8.53;6.28;;;;;;;5.24;67.41;95557.77;1757049;80;21292;-81
2021/01/21 08:15:26;;;;;;;7.70;4.37;;;;;;;5.26;67.39;95561.77;1761918;80;21384;-80
2021/01/21 08:17:54;;;;;;;14.13;8.43;;;;;;;5.31;67.38;95556.10;1683944;84;21113;-81
2021/01/21 08:20:24;;;;;;;6.42;4.08;;;;;;;5.35;67.35;95534.98;1699666;83;21141;-81
2021/01/21 08:22:56;;;;;;;11.08;6.65;;;;;;;5.37;67.26;95530.97;1753911;80;21149;-81
2021/01/21 08:25:23;;;;;;;7.95;4.65;;;;;;;5.36;67.34;95518.55;1744435;80;21135;-81
2021/01/21 08:27:58;;;;;;;197.13;81.17;;;;;;;5.36;67.27;95513.39;1756076;80;21119;-81
2021/01/21 08:30:27;;;;;;;24.02;11.43;;;;;;;5.38;67.36;95514.05;1763586;80;21125;-81
2021/01/21 08:33:07;;;;;;;10.43;5.45;;;;;;;5.38;67.25;95520.98;1750934;80;21147;-80
2021/01/21 08:35:37;;;;;;;16.70;7.53;;;;;;;5.34;67.26;95505.53;1764388;80;21519;-81
2021/01/21 08:38:04;;;;;;;13.20;5.85;;;;;;;5.37;67.15;95517.61;1737796;80;21957;-81
2021/01/21 08:40:30;;;;;;;9.83;5.10;;;;;;;5.38;67.24;95514.55;1722520;80;21114;-81
2021/01/21 08:42:56;;;;;;;9.95;4.30;;;;;;;5.40;67.20;95500.52;1758402;80;21109;-81
2021/01/21 08:45:28;;;;;;;6.35;3.95;;;;;;;5.43;67.22;95522.06;1758344;80;21094;-80
2021/01/21 08:47:54;;;;;;;8.65;4.12;;;;;;;5.48;67.02;95508.66;1760583;80;21245;-81
2021/01/21 08:50:20;;;;;;;9.60;4.60;;;;;;;5.52;66.52;95492.36;1753595;80;21186;-81
2021/01/21 08:53:08;;;;;;;65.40;23.90;;;;;;;5.56;66.67;95502.67;1760542;80;21452;-81
2021/01/21 08:55:45;;;;;;;13.55;6.33;;;;;;;5.60;66.87;95503.43;1752659;80;21133;-80
2021/01/21 08:58:16;;;;;;;10.90;5.47;;;;;;;5.58;66.84;95502.00;1727247;80;21106;-81
2021/01/21 09:01:04;;;;;;;5.12;3.42;;;;;;;5.57;66.90;95512.00;1753577;80;21225;-81
2021/01/21 09:06:20;;;;;;;3.70;2.80;;;;;;;5.64;66.73;95519.34;1811757;76;23251;-82
2021/01/21 09:08:56;;;;;;;20.75;8.90;;;;;;;5.64;66.75;95520.15;1812886;78;21077;-82
2021/01/21 09:11:34;;;;;;;17.92;7.05;;;;;;;5.68;66.65;95529.62;1804263;78;21108;-82
2021/01/21 09:14:01;;;;;;;6.40;3.50;;;;;;;5.74;66.58;95522.50;1813203;78;21106;-82
2021/01/21 09:16:49;;;;;;;12.03;5.47;;;;;;;5.78;66.27;95524.25;1807286;78;21367;-81
2021/01/21 09:19:23;;;;;;;14.68;7.03;;;;;;;5.83;66.34;95516.30;1764610;78;21065;-82
2021/01/21 09:22:04;;;;;;;6.30;3.90;;;;;;;5.87;66.13;95505.98;1808392;78;21136;-82
